Terminal Aerodrome Forecast
Issued by NWS Green Bay, WI

Home | Current Version | Previous Version | Text Only | Print | Product List | Glossary Off
Versions: 1 2 3 4 5 6 7 8 9 10 11 12 13 14 15 16 17 18 19 20 21 22 23 24 25 26 27 28 29 30 31 32 33 34 35 36 37 38 39 40 41 42 43 44

913
FTUS43 KGRB 291252 AAA
TAFGRB
TAF AMD
KGRB 291252Z 2913/3012 03012KT P6SM SCT010
      TEMPO 2913/2915 BKN009
     FM291600 04016G21KT P6SM FEW017
     FM292000 04016G21KT P6SM SCT200
     FM300000 04012KT P6SM SCT140
     FM300500 04011KT P6SM BKN070
     FM301100 04012KT P6SM BKN023=

USA.gov is the U.S. government's official web portal to all federal, state and local government web resources and services.